Time;durP1;ratioP1;P1;durP2;ratioP2;P2;SDS_P1;SDS_P2;PMS_P1;PMS_P2;Temp;Humidity;BMP_temperature;BMP_pressure;BME280_temperature;BME280_humidity;BME280_pressure;Samples;Min_cycle;Max_cycle;Signal;HPM_P1;HPM_P2
2024/02/26 00:00:08;;;;;;;;;;;;;;;8.91;100.00;100387.53;5078854;28;816;-84
2024/02/26 00:02:38;;;;;;;;;;;;;;;8.88;100.00;100391.28;5060755;28;907;-84
2024/02/26 00:05:08;;;;;;;;;;;;;;;8.86;100.00;100395.06;5059921;28;912;-84
2024/02/26 00:07:34;;;;;;;;;;;;;;;8.62;100.00;100395.19;5079239;28;1279;-84
2024/02/26 00:10:00;;;;;;;;;;;;;;;8.55;100.00;100394.84;5061235;28;1885;-84
2024/02/26 00:12:26;;;;;;;;;;;;;;;8.56;100.00;100391.22;5060855;28;917;-84
2024/02/26 00:14:53;;;;;;;;;;;;;;;8.57;100.00;100390.22;5060744;28;792;-84
2024/02/26 00:17:19;;;;;;;;;;;;;;;8.53;100.00;100382.56;5079333;28;1287;-84
2024/02/26 00:19:45;;;;;;;;;;;;;;;8.51;100.00;100388.03;5079696;28;827;-84
2024/02/26 00:22:11;;;;;;;;;;;;;;;8.50;100.00;100390.84;5061660;28;892;-84
2024/02/26 00:24:37;;;;;;;;;;;;;;;8.50;100.00;100383.66;5060592;28;913;-84
2024/02/26 00:27:03;;;;;;;;;;;;;;;8.51;100.00;100388.03;5079357;28;1295;-84
2024/02/26 00:29:29;;;;;;;;;;;;;;;8.47;100.00;100389.25;5078030;28;1897;-84
2024/02/26 00:31:55;;;;;;;;;;;;;;;8.39;100.00;100385.50;5079264;28;823;-84
2024/02/26 00:34:21;;;;;;;;;;;;;;;8.36;100.00;100391.06;5079083;28;816;-84
2024/02/26 00:36:47;;;;;;;;;;;;;;;8.32;100.00;100387.75;5060698;28;1217;-84
2024/02/26 00:39:13;;;;;;;;;;;;;;;8.37;100.00;100390.09;5080658;28;815;-84
2024/02/26 00:41:42;;;;;;;;;;;;;;;8.42;100.00;100388.75;5080200;28;883;-84
2024/02/26 00:44:08;;;;;;;;;;;;;;;8.41;100.00;100387.06;5079592;28;815;-84
2024/02/26 00:46:34;;;;;;;;;;;;;;;8.39;100.00;100389.00;5079238;28;1279;-84
2024/02/26 00:49:01;;;;;;;;;;;;;;;8.37;100.00;100385.63;5079801;28;1941;-84
2024/02/26 00:51:27;;;;;;;;;;;;;;;8.36;100.00;100386.59;5081356;28;784;-84
2024/02/26 00:53:54;;;;;;;;;;;;;;;8.36;100.00;100388.38;5081931;28;816;-84
2024/02/26 00:56:21;;;;;;;;;;;;;;;8.32;100.00;100375.22;5057988;28;1317;-84
2024/02/26 00:58:47;;;;;;;;;;;;;;;8.30;100.00;100377.19;5076581;28;907;-84
2024/02/26 01:01:13;;;;;;;;;;;;;;;8.31;100.00;100380.72;5057975;28;833;-84
2024/02/26 01:03:39;;;;;;;;;;;;;;;8.33;100.00;100382.28;5076597;28;804;-83
2024/02/26 01:06:05;;;;;;;;;;;;;;;8.34;100.00;100384.00;5076180;28;1263;-84
2024/02/26 01:08:31;;;;;;;;;;;;;;;8.34;100.00;100385.78;5058179;28;1957;-84
2024/02/26 01:10:57;;;;;;;;;;;;;;;8.28;100.00;100391.66;5077010;28;554;-84
2024/02/26 01:13:23;;;;;;;;;;;;;;;8.26;100.00;100396.25;5058715;28;923;-83
2024/02/26 01:15:49;;;;;;;;;;;;;;;8.25;100.00;100395.38;5076303;28;1267;-84
2024/02/26 01:18:15;;;;;;;;;;;;;;;8.26;100.00;100398.94;5058859;28;966;-84
2024/02/26 01:20:41;;;;;;;;;;;;;;;8.27;100.00;100395.28;5076901;28;843;-84
2024/02/26 01:23:07;;;;;;;;;;;;;;;8.26;100.00;100401.59;5076524;28;824;-84
2024/02/26 01:25:33;;;;;;;;;;;;;;;8.23;100.00;100400.00;5057993;28;955;-83
2024/02/26 01:27:59;;;;;;;;;;;;;;;8.19;100.00;100398.56;5076781;28;1208;-84
2024/02/26 01:30:25;;;;;;;;;;;;;;;8.18;100.00;100394.19;5078512;28;1894;-84
2024/02/26 01:32:51;;;;;;;;;;;;;;;8.18;100.00;100390.66;5081074;28;835;-84
2024/02/26 01:35:17;;;;;;;;;;;;;;;8.15;100.00;100391.72;5062043;28;848;-84
2024/02/26 01:37:43;;;;;;;;;;;;;;;8.11;100.00;100390.28;5081182;28;1267;-84
2024/02/26 01:40:10;;;;;;;;;;;;;;;8.10;100.00;100390.41;5081458;28;820;-84
2024/02/26 01:42:38;;;;;;;;;;;;;;;8.09;100.00;100383.34;5062803;28;949;-84
2024/02/26 01:45:07;;;;;;;;;;;;;;;8.10;100.00;100382.38;5080540;28;859;-84
2024/02/26 01:47:33;;;;;;;;;;;;;;;8.10;100.00;100382.38;5063252;28;1260;-83
2024/02/26 01:49:59;;;;;;;;;;;;;;;8.10;100.00;100385.06;5081764;28;1893;-84
2024/02/26 01:52:26;;;;;;;;;;;;;;;8.09;100.00;100383.34;5063636;28;857;-84
2024/02/26 01:54:52;;;;;;;;;;;;;;;8.08;100.00;100390.53;5062000;28;859;-84
2024/02/26 01:57:18;;;;;;;;;;;;;;;8.05;100.00;100391.59;5081302;28;1274;-84
2024/02/26 01:59:44;;;;;;;;;;;;;;;8.07;100.00;100385.31;5080010;28;908;-84
2024/02/26 02:02:12;;;;;;;;;;;;;;;8.07;100.00;100394.16;5063210;28;925;-84
2024/02/26 02:04:39;;;;;;;;;;;;;;;8.05;100.00;100393.41;5062889;28;768;-84
2024/02/26 02:07:05;;;;;;;;;;;;;;;7.97;100.00;100391.34;5062655;28;1256;-84
2024/02/26 02:09:32;;;;;;;;;;;;;;;7.94;100.00;100396.06;5080053;28;1953;-84
2024/02/26 02:11:58;;;;;;;;;;;;;;;7.97;100.00;100403.84;5081739;28;835;-84
2024/02/26 02:14:25;;;;;;;;;;;;;;;7.93;100.00;100395.22;5081639;28;819;-84
2024/02/26 02:16:51;;;;;;;;;;;;;;;7.96;100.00;100397.66;5063100;28;1292;-84
2024/02/26 02:19:17;;;;;;;;;;;;;;;7.98;100.00;100394.88;5082030;28;756;-85
2024/02/26 02:21:43;;;;;;;;;;;;;;;7.98;100.00;100390.38;5064033;28;908;-84
2024/02/26 02:24:09;;;;;;;;;;;;;;;8.01;100.00;100398.16;5063383;28;864;-84
2024/02/26 02:26:35;;;;;;;;;;;;;;;8.05;100.00;100398.75;5081630;28;1165;-84
2024/02/26 02:29:03;;;;;;;;;;;;;;;8.07;100.00;100402.19;5063214;28;1906;-84
2024/02/26 02:31:30;;;;;;;;;;;;;;;8.02;100.00;100402.50;5081901;28;808;-84
2024/02/26 02:33:56;;;;;;;;;;;;;;;7.98;100.00;100397.53;5082079;28;855;-84
2024/02/26 02:36:22;;;;;;;;;;;;;;;7.96;100.00;100402.13;5079724;28;1184;-84
2024/02/26 02:38:52;;;;;;;;;;;;;;;7.97;100.00;100406.53;5064334;28;961;-84
2024/02/26 02:41:18;;;;;;;;;;;;;;;7.94;100.00;100410.25;5062040;28;837;-84
2024/02/26 02:43:44;;;;;;;;;;;;;;;7.89;100.00;100408.94;5063389;28;899;-84
2024/02/26 02:46:13;;;;;;;;;;;;;;;7.89;100.00;100419.59;5063051;28;1274;-84
2024/02/26 02:48:41;;;;;;;;;;;;;;;7.86;100.00;100420.66;5064005;28;904;-84
2024/02/26 02:51:09;;;;;;;;;;;;;;;7.81;100.00;100416.66;5081314;28;1947;-84
2024/02/26 02:53:35;;;;;;;;;;;;;;;7.78;100.00;100425.75;5082955;28;796;-84
2024/02/26 02:56:01;;;;;;;;;;;;;;;7.76;100.00;100427.69;5063633;28;1208;-84
2024/02/26 02:58:27;;;;;;;;;;;;;;;7.79;100.00;100419.44;5081839;28;890;-84
2024/02/26 03:00:55;;;;;;;;;;;;;;;7.80;100.00;100422.97;5077262;28;889;-84
2024/02/26 03:03:21;;;;;;;;;;;;;;;7.80;100.00;100425.66;5078317;28;807;-84
2024/02/26 03:05:47;;;;;;;;;;;;;;;7.69;100.00;100427.31;5059128;28;1188;-84
2024/02/26 03:08:13;;;;;;;;;;;;;;;7.63;100.00;100421.56;5078777;28;876;-84
2024/02/26 03:10:39;;;;;;;;;;;;;;;7.62;100.00;100422.53;5078227;28;1902;-83
2024/02/26 03:13:05;;;;;;;;;;;;;;;7.63;100.00;100425.09;5059964;28;918;-84
2024/02/26 03:15:31;;;;;;;;;;;;;;;7.57;100.00;100430.91;5059535;28;919;-84
2024/02/26 03:17:57;;;;;;;;;;;;;;;7.56;100.00;100434.50;5078494;28;1197;-84
2024/02/26 03:20:23;;;;;;;;;;;;;;;7.56;100.00;100436.31;5060201;28;904;-84
2024/02/26 03:22:49;;;;;;;;;;;;;;;7.57;100.00;100436.25;5078709;28;845;-83
2024/02/26 03:25:15;;;;;;;;;;;;;;;7.57;100.00;100457.59;5076558;28;867;-84
2024/02/26 03:27:40;;;;;;;;;;;;;;;7.54;100.00;100463.13;5078913;28;1201;-84
2024/02/26 03:30:07;;;;;;;;;;;;;;;7.55;100.00;100467.50;5078900;28;1956;-84
2024/02/26 03:32:33;;;;;;;;;;;;;;;7.56;100.00;100476.34;5076262;28;790;-84
2024/02/26 03:34:59;;;;;;;;;;;;;;;7.53;100.00;100471.25;5077847;28;839;-84
2024/02/26 03:37:25;;;;;;;;;;;;;;;7.52;100.00;100483.75;5078438;28;1255;-84
2024/02/26 03:39:51;;;;;;;;;;;;;;;7.51;100.00;100481.19;5078590;28;827;-84
2024/02/26 03:42:17;;;;;;;;;;;;;;;7.47;100.00;100486.78;5060336;28;905;-84
2024/02/26 03:44:43;;;;;;;;;;;;;;;7.46;100.00;100492.19;5060152;28;795;-83
2024/02/26 03:47:09;;;;;;;;;;;;;;;7.44;100.00;100481.63;5078638;28;1184;-84
2024/02/26 03:49:35;;;;;;;;;;;;;;;7.44;100.00;100484.31;5078480;28;1881;-84
2024/02/26 03:52:01;;;;;;;;;;;;;;;7.44;100.00;100486.97;5078831;28;808;-84
2024/02/26 03:54:27;;;;;;;;;;;;;;;7.42;100.00;100486.25;5078049;28;891;-84
2024/02/26 03:56:53;;;;;;;;;;;;;;;7.44;100.00;100488.78;5078601;28;1197;-84
2024/02/26 03:59:20;;;;;;;;;;;;;;;7.47;100.00;100488.56;5078830;28;816;-83
2024/02/26 04:01:49;;;;;;;;;;;;;;;7.48;100.00;100488.47;5079326;28;831;-84
2024/02/26 04:04:15;;;;;;;;;;;;;;;7.56;100.00;100495.91;5079047;28;894;-84
2024/02/26 04:06:45;;;;;;;;;;;;;;;7.62;100.00;100497.28;5078066;28;1177;-84
2024/02/26 04:09:13;;;;;;;;;;;;;;;7.62;100.00;100497.28;5079052;28;890;-84
2024/02/26 04:11:40;;;;;;;;;;;;;;;7.64;100.00;100504.19;5061042;28;852;-83
2024/02/26 04:14:08;;;;;;;;;;;;;;;7.65;100.00;100505.03;5079742;28;717;-84
2024/02/26 04:16:37;;;;;;;;;;;;;;;7.67;100.00;100501.31;5079074;28;1220;-84
2024/02/26 04:19:03;;;;;;;;;;;;;;;7.69;100.00;100498.53;5061364;28;852;-85
2024/02/26 04:21:29;;;;;;;;;;;;;;;7.67;100.00;100509.31;5060419;28;914;-84
2024/02/26 04:23:55;;;;;;;;;;;;;;;7.62;100.00;100510.63;5078901;28;736;-84
2024/02/26 04:26:21;;;;;;;;;;;;;;;7.62;100.00;100513.28;5060095;28;1318;-83
2024/02/26 04:28:47;;;;;;;;;;;;;;;7.61;100.00;100517.78;5060557;28;813;-84
2024/02/26 04:31:13;;;;;;;;;;;;;;;7.60;100.00;100521.41;5061276;28;1898;-84
2024/02/26 04:33:41;;;;;;;;;;;;;;;7.64;100.00;100525.56;5060843;28;905;-84
2024/02/26 04:36:14;;;;;;;;;;;;;;;7.69;100.00;100526.06;5079674;28;1208;-84
2024/02/26 04:38:40;;;;;;;;;;;;;;;7.67;100.00;100529.81;5061567;28;866;-84
2024/02/26 04:41:06;;;;;;;;;;;;;;;7.68;100.00;100524.38;5079860;28;820;-84
2024/02/26 04:43:32;;;;;;;;;;;;;;;7.72;100.00;100525.84;5061179;28;875;-84
2024/02/26 04:45:58;;;;;;;;;;;;;;;7.78;100.00;100527.22;5061930;28;1208;-84
2024/02/26 04:48:24;;;;;;;;;;;;;;;7.79;100.00;100534.25;5062170;28;865;-84
2024/02/26 04:50:50;;;;;;;;;;;;;;;7.76;100.00;100539.81;5062190;28;1937;-84
2024/02/26 04:53:16;;;;;;;;;;;;;;;7.75;100.00;100540.78;5062378;28;906;-84
2024/02/26 04:55:42;;;;;;;;;;;;;;;7.78;100.00;100537.91;5079957;28;808;-84
2024/02/26 04:58:08;;;;;;;;;;;;;;;7.78;100.00;100545.91;5080946;28;1283;-85
2024/02/26 05:00:34;;;;;;;;;;;;;;;7.73;100.00;100540.03;5063671;28;949;-84
2024/02/26 05:03:00;;;;;;;;;;;;;;;7.73;100.00;100543.56;5078871;28;884;-84
2024/02/26 05:05:25;;;;;;;;;;;;;;;7.74;100.00;100542.59;5055964;28;808;-83
2024/02/26 05:07:51;;;;;;;;;;;;;;;7.72;100.00;100552.53;5058313;28;1295;-83
2024/02/26 05:10:17;;;;;;;;;;;;;;;7.68;100.00;100560.91;5076509;28;1951;-84
2024/02/26 05:12:43;;;;;;;;;;;;;;;7.63;100.00;100568.38;5076427;28;816;-83
2024/02/26 05:15:10;;;;;;;;;;;;;;;7.64;100.00;100573.59;5057425;28;932;-83
2024/02/26 05:17:36;;;;;;;;;;;;;;;7.64;100.00;100573.59;5057913;28;1205;-84
2024/02/26 05:20:02;;;;;;;;;;;;;;;7.63;100.00;100571.03;5057715;28;784;-83
2024/02/26 05:22:28;;;;;;;;;;;;;;;7.65;100.00;100574.44;5058826;28;870;-84
2024/02/26 05:24:54;;;;;;;;;;;;;;;7.55;100.00;100568.94;5075955;28;823;-84
2024/02/26 05:27:20;;;;;;;;;;;;;;;7.51;100.00;100572.78;5058535;28;1291;-83
2024/02/26 05:29:46;;;;;;;;;;;;;;;7.53;100.00;100578.00;5059328;28;1950;-84
2024/02/26 05:32:12;;;;;;;;;;;;;;;7.52;100.00;100577.16;5059136;28;903;-84
2024/02/26 05:34:38;;;;;;;;;;;;;;;7.50;100.00;100581.75;5057655;28;878;-83
2024/02/26 05:37:04;;;;;;;;;;;;;;;7.39;100.00;100589.69;5058331;28;1280;-84
2024/02/26 05:39:30;;;;;;;;;;;;;;;7.34;100.00;100586.47;5077167;28;827;-83
2024/02/26 05:41:56;;;;;;;;;;;;;;;7.28;100.00;100589.59;5058336;28;924;-84
2024/02/26 05:44:22;;;;;;;;;;;;;;;7.27;100.00;100591.38;5057885;28;939;-83
2024/02/26 05:46:48;;;;;;;;;;;;;;;7.30;100.00;100595.69;5059503;28;1212;-83
2024/02/26 05:49:14;;;;;;;;;;;;;;;7.33;100.00;100592.78;5059525;28;852;-83
2024/02/26 05:51:40;;;;;;;;;;;;;;;7.24;100.00;100594.28;5076347;28;1934;-83
2024/02/26 05:54:08;;;;;;;;;;;;;;;7.14;100.00;100599.41;5059608;28;856;-82
2024/02/26 05:56:34;;;;;;;;;;;;;;;7.20;100.00;100590.13;5058754;28;1264;-82
2024/02/26 05:58:59;;;;;;;;;;;;;;;7.27;100.00;100588.72;5078290;28;839;-83
2024/02/26 06:01:26;;;;;;;;;;;;;;;7.30;100.00;100595.69;5077857;28;843;-83
2024/02/26 06:03:52;;;;;;;;;;;;;;;7.27;100.00;100599.41;5078761;28;831;-83
2024/02/26 06:06:18;;;;;;;;;;;;;;;7.17;100.00;100598.34;5059091;28;1209;-83
2024/02/26 06:08:44;;;;;;;;;;;;;;;7.07;100.00;100599.94;5078096;28;947;-83
2024/02/26 06:11:10;;;;;;;;;;;;;;;7.07;100.00;100597.28;5078806;28;1934;-83
2024/02/26 06:13:36;;;;;;;;;;;;;;;7.04;100.00;100602.84;5060677;28;902;-83
2024/02/26 06:16:02;;;;;;;;;;;;;;;7.09;100.00;100614.03;5077348;28;1200;-82
2024/02/26 06:18:28;;;;;;;;;;;;;;;7.14;100.00;100623.41;5063240;28;801;-83
2024/02/26 06:20:54;;;;;;;;;;;;;;;7.11;100.00;100618.31;5063908;28;835;-83
2024/02/26 06:23:20;;;;;;;;;;;;;;;7.13;100.00;100623.53;5082826;28;875;-85
2024/02/26 06:25:47;;;;;;;;;;;;;;;7.17;100.00;100633.88;5063931;28;1193;-84
2024/02/26 06:28:14;;;;;;;;;;;;;;;7.22;100.00;100630.03;5082957;28;906;-84
2024/02/26 06:30:40;;;;;;;;;;;;;;;7.23;100.00;100629.06;5064765;28;1890;-84
2024/02/26 06:33:06;;;;;;;;;;;;;;;7.25;100.00;100640.50;5081346;28;808;-84
2024/02/26 06:35:32;;;;;;;;;;;;;;;7.26;100.00;100639.53;5063655;28;903;-84
2024/02/26 06:37:58;;;;;;;;;;;;;;;7.26;100.00;100642.19;5083535;28;1239;-84
2024/02/26 06:40:25;;;;;;;;;;;;;;;7.26;100.00;100643.03;5083026;28;901;-84
2024/02/26 06:42:51;;;;;;;;;;;;;;;7.23;100.00;100640.59;5083411;28;859;-84
2024/02/26 06:45:19;;;;;;;;;;;;;;;7.28;100.00;100640.28;5083155;28;819;-84
2024/02/26 06:47:45;;;;;;;;;;;;;;;7.31;100.00;100645.41;5083399;28;1165;-84
2024/02/26 06:50:14;;;;;;;;;;;;;;;7.31;100.00;100645.41;5082491;28;1932;-84
2024/02/26 06:52:40;;;;;;;;;;;;;;;7.39;100.00;100651.06;5083874;28;894;-84
2024/02/26 06:55:08;;;;;;;;;;;;;;;7.38;100.00;100642.22;5083289;28;732;-84
2024/02/26 06:57:34;;;;;;;;;;;;;;;7.41;100.00;100654.47;5083870;28;1200;-84
2024/02/26 07:00:00;;;;;;;;;;;;;;;7.37;100.00;100656.47;5083902;28;837;-84
2024/02/26 07:02:26;;;;;;;;;;;;;;;7.35;100.00;100665.56;5066279;28;851;-84
2024/02/26 07:04:52;;;;;;;;;;;;;;;7.45;100.00;100664.81;5083923;28;890;-85
2024/02/26 07:07:18;;;;;;;;;;;;;;;7.53;100.00;100666.09;5084798;28;1259;-83
2024/02/26 07:09:44;;;;;;;;;;;;;;;7.48;100.00;100663.75;5077605;28;942;-83
2024/02/26 07:12:10;;;;;;;;;;;;;;;7.47;100.00;100665.56;5059424;28;1948;-84
2024/02/26 07:14:37;;;;;;;;;;;;;;;7.46;100.00;100671.00;5075525;28;881;-84
2024/02/26 07:17:03;;;;;;;;;;;;;;;7.51;100.00;100679.53;5077430;28;1185;-83
2024/02/26 07:19:29;;;;;;;;;;;;;;;7.58;100.00;100675.50;5077531;28;752;-84
2024/02/26 07:21:55;;;;;;;;;;;;;;;7.61;100.00;100685.09;5077622;28;804;-84
2024/02/26 07:24:21;;;;;;;;;;;;;;;7.57;100.00;100692.47;5076451;28;730;-83
2024/02/26 07:26:47;;;;;;;;;;;;;;;7.56;100.00;100689.88;5077001;28;1192;-84
2024/02/26 07:29:13;;;;;;;;;;;;;;;7.55;100.00;100699.72;5076215;28;926;-83
2024/02/26 07:31:39;;;;;;;;;;;;;;;7.60;100.00;100702.06;5077056;28;1955;-84
2024/02/26 07:34:05;;;;;;;;;;;;;;;7.65;100.00;100707.94;5077375;28;903;-84
2024/02/26 07:36:31;;;;;;;;;;;;;;;7.65;100.00;100703.44;5076417;28;1180;-84
2024/02/26 07:38:58;;;;;;;;;;;;;;;7.67;100.00;100711.34;5077171;28;1098;-83
2024/02/26 07:41:25;;;;;;;;;;;;;;;7.68;100.00;100713.06;5058677;28;872;-84
2024/02/26 07:43:51;;;;;;;;;;;;;;;7.70;100.00;100706.66;5077544;28;807;-84
2024/02/26 07:46:17;;;;;;;;;;;;;;;7.76;100.00;100710.69;5076308;28;1200;-84
2024/02/26 07:48:43;;;;;;;;;;;;;;;7.76;100.00;100714.22;5077258;28;906;-84
2024/02/26 07:51:12;;;;;;;;;;;;;;;7.82;100.00;100712.09;5076584;28;1910;-84
2024/02/26 07:53:38;;;;;;;;;;;;;;;7.82;100.00;100712.09;5076254;28;878;-84
2024/02/26 07:56:04;;;;;;;;;;;;;;;7.88;100.00;100712.50;5076956;28;1185;-84
2024/02/26 07:58:33;;;;;;;;;;;;;;;7.84;100.00;100711.00;5077860;28;847;-84
2024/02/26 08:00:59;;;;;;;;;;;;;;;7.78;100.00;100713.28;5077702;28;792;-84
2024/02/26 08:03:25;;;;;;;;;;;;;;;7.71;100.00;100710.19;5077418;28;820;-84
2024/02/26 08:05:51;;;;;;;;;;;;;;;7.75;100.00;100701.81;5077016;28;1189;-83
2024/02/26 08:08:17;;;;;;;;;;;;;;;7.79;100.00;100698.97;5077389;28;803;-84
2024/02/26 08:10:43;;;;;;;;;;;;;;;7.67;100.00;100709.56;5077730;28;1906;-84
2024/02/26 08:13:09;;;;;;;;;;;;;;;7.74;100.00;100718.81;5077463;28;797;-83
2024/02/26 08:15:38;;;;;;;;;;;;;;;7.74;100.00;100715.28;5076932;28;894;-84
2024/02/26 08:18:05;;;;;;;;;;;;;;;7.72;100.00;100714.56;5077503;28;1362;-84
2024/02/26 08:20:31;;;;;;;;;;;;;;;7.73;100.00;100718.94;5059114;28;758;-84
2024/02/26 08:22:58;;;;;;;;;;;;;;;7.69;100.00;100718.31;5077619;28;839;-84
2024/02/26 08:25:24;;;;;;;;;;;;;;;7.63;100.00;100728.53;5076660;28;929;-84
2024/02/26 08:27:50;;;;;;;;;;;;;;;7.60;100.00;100732.28;5059086;28;1181;-84
2024/02/26 08:30:17;;;;;;;;;;;;;;;7.63;100.00;100742.75;5077277;28;815;-84
2024/02/26 08:32:44;;;;;;;;;;;;;;;7.68;100.00;100743.28;5077822;28;1898;-83
2024/02/26 08:35:10;;;;;;;;;;;;;;;7.67;100.00;100746.94;5076891;28;748;-84
2024/02/26 08:37:36;;;;;;;;;;;;;;;7.68;100.00;100742.44;5059051;28;1259;-83
2024/02/26 08:40:03;;;;;;;;;;;;;;;7.70;100.00;100748.53;5076812;28;826;-84
2024/02/26 08:42:30;;;;;;;;;;;;;;;7.79;100.00;100758.56;5078209;28;918;-84
2024/02/26 08:44:56;;;;;;;;;;;;;;;7.89;100.00;100759.63;5077622;28;902;-84
2024/02/26 08:47:22;;;;;;;;;;;;;;;7.96;100.00;100760.91;5080862;28;1176;-84
2024/02/26 08:49:48;;;;;;;;;;;;;;;7.94;100.00;100757.47;5063332;28;906;-85
2024/02/26 08:52:14;;;;;;;;;;;;;;;7.99;100.00;100759.81;5081625;28;1898;-84
2024/02/26 08:54:40;;;;;;;;;;;;;;;8.04;100.00;100761.19;5081215;28;887;-85
2024/02/26 08:57:06;;;;;;;;;;;;;;;8.05;100.00;100759.34;5082163;28;1283;-84
2024/02/26 08:59:32;;;;;;;;;;;;;;;8.02;100.00;100770.28;5082053;28;831;-84
2024/02/26 09:01:58;;;;;;;;;;;;;;;8.08;100.00;100763.66;5082098;28;859;-84
2024/02/26 09:04:24;;;;;;;;;;;;;;;8.09;100.00;100771.56;5062945;28;908;-84
2024/02/26 09:06:50;;;;;;;;;;;;;;;8.09;100.00;100768.88;5082646;28;1153;-84
2024/02/26 09:09:16;;;;;;;;;;;;;;;8.10;100.00;100773.25;5082134;28;839;-84
2024/02/26 09:11:42;;;;;;;;;;;;;;;8.07;100.00;100775.31;5083494;28;1965;-84
2024/02/26 09:14:08;;;;;;;;;;;;;;;8.11;100.00;100774.13;5083457;28;823;-84
2024/02/26 09:16:34;;;;;;;;;;;;;;;8.12;100.00;100771.31;5076924;28;1185;-83
2024/02/26 09:19:02;;;;;;;;;;;;;;;8.14;100.00;100774.75;5075298;28;895;-83
2024/02/26 09:21:28;;;;;;;;;;;;;;;8.13;100.00;100775.69;5075587;28;797;-84
2024/02/26 09:23:54;;;;;;;;;;;;;;;8.20;100.00;100778.81;5077118;28;832;-84
2024/02/26 09:26:20;;;;;;;;;;;;;;;8.25;100.00;100781.97;5076789;28;1157;-84
2024/02/26 09:28:46;;;;;;;;;;;;;;;8.23;100.00;100787.44;5077273;28;819;-84
2024/02/26 09:31:15;;;;;;;;;;;;;;;8.10;100.00;100793.78;5077136;28;1957;-84
2024/02/26 09:33:42;;;;;;;;;;;;;;;8.23;100.00;100795.47;5077084;28;674;-84
2024/02/26 09:36:09;;;;;;;;;;;;;;;8.15;100.00;100802.31;5076500;28;1243;-84
2024/02/26 09:38:37;;;;;;;;;;;;;;;8.22;100.00;100804.44;5077623;28;831;-84
2024/02/26 09:41:13;;;;;;;;;;;;;;;8.25;100.00;100808.69;5077916;28;875;-84
2024/02/26 09:43:44;;;;;;;;;;;;;;;8.41;100.00;100804.00;5059427;28;821;-84
2024/02/26 09:46:10;;;;;;;;;;;;;;;8.53;100.00;100802.25;5077477;28;1224;-84
2024/02/26 09:48:37;;;;;;;;;;;;;;;8.60;100.00;100807.06;5077413;28;854;-84
2024/02/26 09:51:04;;;;;;;;;;;;;;;8.60;100.00;100811.56;5079336;28;1960;-84
2024/02/26 09:53:31;;;;;;;;;;;;;;;8.69;100.00;100808.22;5081853;28;800;-84
2024/02/26 09:55:58;;;;;;;;;;;;;;;8.67;100.00;100815.50;5081190;28;1176;-84
2024/02/26 09:58:27;;;;;;;;;;;;;;;8.61;100.00;100816.78;5062597;28;853;-84
2024/02/26 10:00:58;;;;;;;;;;;;;;;8.60;100.00;100824.94;5063585;28;908;-84
2024/02/26 10:03:34;;;;;;;;;;;;;;;8.55;100.00;100827.06;5063443;28;768;-84
2024/02/26 10:06:02;;;;;;;;;;;;;;;8.66;100.00;100831.66;5062581;28;1228;-84
2024/02/26 10:08:29;;;;;;;;;;;;;;;8.82;100.00;100833.09;5062977;28;923;-84
2024/02/26 10:10:56;;;;;;;;;;;;;;;8.86;100.00;100833.72;5063537;28;1898;-84
2024/02/26 10:13:22;;;;;;;;;;;;;;;8.87;100.00;100836.28;5082308;28;816;-84
2024/02/26 10:15:49;;;;;;;;;;;;;;;8.99;100.00;100845.22;5063095;28;1189;-84
2024/02/26 10:18:15;;;;;;;;;;;;;;;8.96;100.00;100839.25;5063551;28;884;-84
2024/02/26 10:20:41;;;;;;;;;;;;;;;8.99;100.00;100839.03;5063745;28;845;-85
2024/02/26 10:23:07;;;;;;;;;;;;;;;8.94;100.00;100846.53;5063624;28;840;-84
2024/02/26 10:25:33;;;;;;;;;;;;;;;8.91;100.00;100845.78;5063474;28;958;-84
2024/02/26 10:28:03;;;;;;;;;;;;;;;8.93;100.00;100842.13;5064548;28;1272;-84
2024/02/26 10:30:30;;;;;;;;;;;;;;;8.96;100.00;100852.63;5064268;28;878;-84
2024/02/26 10:32:57;;;;;;;;;;;;;;;8.99;100.00;100849.72;5063866;28;1956;-84
2024/02/26 10:35:23;;;;;;;;;;;;;;;8.99;100.00;100853.25;5064161;28;806;-84
2024/02/26 10:37:50;;;;;;;;;;;;;;;9.04;100.00;100856.41;5081290;28;1315;-84
2024/02/26 10:40:16;;;;;;;;;;;;;;;9.03;100.00;100862.75;5080990;28;917;-84
2024/02/26 10:42:43;;;;;;;;;;;;;;;9.06;100.00;100861.69;5082763;28;780;-84
2024/02/26 10:45:10;;;;;;;;;;;;;;;9.12;100.00;100862.06;5064101;28;799;-84
2024/02/26 10:47:36;;;;;;;;;;;;;;;9.15;100.00;100861.88;5080246;28;1283;-84
2024/02/26 10:50:04;;;;;;;;;;;;;;;9.13;100.00;100868.28;5064951;28;857;-84
2024/02/26 10:52:35;;;;;;;;;;;;;;;9.18;100.00;100864.31;5065399;28;1951;-85
2024/02/26 10:55:03;;;;;;;;;;;;;;;9.27;100.00;100867.28;5064804;28;872;-84
2024/02/26 10:57:39;;;;;;;;;;;;;;;9.36;100.00;100867.44;5083381;28;1181;-85
2024/02/26 11:00:07;;;;;;;;;;;;;;;9.38;100.00;100868.16;5064933;28;830;-84
2024/02/26 11:02:35;;;;;;;;;;;;;;;9.38;100.00;100876.19;5064077;28;916;-84
2024/02/26 11:05:06;;;;;;;;;;;;;;;9.31;100.00;100874.94;5065416;28;795;-84
2024/02/26 11:07:33;;;;;;;;;;;;;;;9.33;100.00;100877.50;5065184;28;1220;-84
2024/02/26 11:10:00;;;;;;;;;;;;;;;9.33;100.00;100877.50;5083767;28;871;-84
2024/02/26 11:12:29;;;;;;;;;;;;;;;9.43;100.00;100884.72;5083825;28;1878;-84
2024/02/26 11:14:57;;;;;;;;;;;;;;;9.54;100.00;100880.38;5082491;28;876;-85
2024/02/26 11:17:26;;;;;;;;;;;;;;;9.54;100.00;100889.28;5083343;28;1208;-84
2024/02/26 11:19:55;;;;;;;;;;;;;;;9.43;100.00;100887.41;5066423;28;821;-84
2024/02/26 11:22:22;;;;;;;;;;;;;;;9.48;100.00;100885.25;5084090;28;838;-85
2024/02/26 11:24:49;;;;;;;;;;;;;;;9.48;100.00;100884.41;5082370;28;880;-84
2024/02/26 11:27:18;;;;;;;;;;;;;;;9.48;100.00;100889.75;5079985;28;1169;-84
2024/02/26 11:29:49;;;;;;;;;;;;;;;9.55;100.00;100887.47;5079280;28;769;-83
2024/02/26 11:32:15;;;;;;;;;;;;;;;9.60;100.00;100896.84;5079646;28;1906;-84
2024/02/26 11:34:42;;;;;;;;;;;;;;;9.63;100.00;100891.25;5060564;28;970;-83
2024/02/26 11:37:14;;;;;;;;;;;;;;;9.66;100.00;100895.53;5060543;28;1263;-84
2024/02/26 11:39:41;;;;;;;;;;;;;;;9.64;100.00;100893.00;5061202;28;981;-84
2024/02/26 11:42:08;;;;;;;;;;;;;;;9.65;100.00;100894.69;5077670;28;914;-84
2024/02/26 11:44:38;;;;;;;;;;;;;;;9.76;100.00;100904.59;5078919;28;901;-84
2024/02/26 11:47:23;;;;;;;;;;;;;;;9.78;100.00;100900.81;5079018;28;1185;-85
2024/02/26 11:49:49;;;;;;;;;;;;;;;9.82;100.00;100916.63;5077356;28;886;-84
2024/02/26 11:52:16;;;;;;;;;;;;;;;9.86;100.00;100902.06;5060875;28;1898;-84
2024/02/26 11:54:50;;;;;;;;;;;;;;;9.90;100.00;100911.56;5077131;28;908;-84
2024/02/26 11:57:23;;;;;;;;;;;;;;;9.92;100.00;100897.06;5060624;28;1268;-84
2024/02/26 11:59:50;;;;;;;;;;;;;;;9.87;100.00;100898.41;5079889;28;881;-85
2024/02/26 12:02:48;;;;;;;;;;;;;;;9.87;100.00;100896.59;5079488;28;791;-84
2024/02/26 12:05:23;;;;;;;;;;;;;;;9.85;100.00;100901.22;5060361;28;817;-84
2024/02/26 12:07:53;;;;;;;;;;;;;;;9.85;100.00;100909.25;5060562;28;1311;-85
2024/02/26 12:10:34;;;;;;;;;;;;;;;9.98;100.00;100914.50;5060808;28;888;-84
2024/02/26 12:13:07;;;;;;;;;;;;;;;10.08;100.00;100912.81;5079259;28;1924;-84
2024/02/26 12:15:36;;;;;;;;;;;;;;;10.13;100.00;100917.81;5059822;28;909;-85
2024/02/26 12:18:04;;;;;;;;;;;;;;;10.13;100.00;100913.34;5061443;28;1366;-84
2024/02/26 12:20:31;;;;;;;;;;;;;;;10.26;100.00;100918.63;5061031;28;852;-84
2024/02/26 12:22:58;;;;;;;;;;;;;;;10.38;100.00;100919.50;5077777;28;815;-84
2024/02/26 12:25:26;;;;;;;;;;;;;;;10.47;100.00;100924.13;5060903;28;883;-84
2024/02/26 12:27:54;;;;;;;;;;;;;;;10.51;100.00;100921.06;5080444;28;1302;-84
2024/02/26 12:30:20;;;;;;;;;;;;;;;10.69;100.00;100920.59;5061493;28;963;-84
2024/02/26 12:32:48;;;;;;;;;;;;;;;10.79;100.00;100921.56;5060801;28;1870;-84
2024/02/26 12:35:14;;;;;;;;;;;;;;;10.87;100.00;100921.81;5061209;28;813;-84
2024/02/26 12:37:41;;;;;;;;;;;;;;;10.94;100.00;100924.88;5078558;28;1220;-84
2024/02/26 12:40:08;;;;;;;;;;;;;;;11.02;100.00;100923.28;5080245;28;811;-84
2024/02/26 12:42:39;;;;;;;;;;;;;;;11.01;100.00;100921.56;5061497;28;833;-84
2024/02/26 12:45:09;;;;;;;;;;;;;;;11.17;100.00;100923.84;5061116;28;899;-84
2024/02/26 12:47:42;;;;;;;;;;;;;;;11.12;100.00;100915.31;5078842;28;1322;-84
2024/02/26 12:50:09;;;;;;;;;;;;;;;11.14;100.00;100924.09;5078909;28;908;-84